sensor_id;sensor_type;location;lat;lon;timestamp;P1;durP1;ratioP1;P2;durP2;ratioP2
46897;SDS011;32646;50.958;6.258;2023-06-10T00:01:10;8.65;;;6.10;;
46897;SDS011;32646;50.958;6.258;2023-06-10T00:03:38;8.35;;;5.95;;
46897;SDS011;32646;50.958;6.258;2023-06-10T00:06:05;11.02;;;6.50;;
46897;SDS011;32646;50.958;6.258;2023-06-10T00:08:32;9.98;;;6.18;;
46897;SDS011;32646;50.958;6.258;2023-06-10T00:10:59;10.70;;;5.85;;
46897;SDS011;32646;50.958;6.258;2023-06-10T00:13:29;12.02;;;6.57;;
46897;SDS011;32646;50.958;6.258;2023-06-10T00:15:59;10.43;;;6.45;;
46897;SDS011;32646;50.958;6.258;2023-06-10T00:18:27;11.10;;;6.22;;
46897;SDS011;32646;50.958;6.258;2023-06-10T01:03:45;10.52;;;6.85;;
46897;SDS011;32646;50.958;6.258;2023-06-10T01:47:38;14.52;;;7.78;;
46897;SDS011;32646;50.958;6.258;2023-06-10T01:50:08;9.77;;;6.72;;
46897;SDS011;32646;50.958;6.258;2023-06-10T01:59:18;10.98;;;7.32;;
46897;SDS011;32646;50.958;6.258;2023-06-10T02:01:48;11.20;;;7.32;;
46897;SDS011;32646;50.958;6.258;2023-06-10T02:04:21;10.65;;;7.10;;
46897;SDS011;32646;50.958;6.258;2023-06-10T02:06:57;9.48;;;6.80;;
46897;SDS011;32646;50.958;6.258;2023-06-10T02:09:34;14.68;;;7.53;;
46897;SDS011;32646;50.958;6.258;2023-06-10T02:12:04;10.98;;;7.28;;
46897;SDS011;32646;50.958;6.258;2023-06-10T02:14:32;11.73;;;6.60;;
46897;SDS011;32646;50.958;6.258;2023-06-10T02:16:59;11.07;;;7.55;;
46897;SDS011;32646;50.958;6.258;2023-06-10T02:19:27;10.73;;;6.60;;
46897;SDS011;32646;50.958;6.258;2023-06-10T02:21:54;11.75;;;7.60;;
46897;SDS011;32646;50.958;6.258;2023-06-10T02:24:21;11.77;;;7.60;;
46897;SDS011;32646;50.958;6.258;2023-06-10T02:26:52;12.10;;;8.32;;
46897;SDS011;32646;50.958;6.258;2023-06-10T02:29:19;11.65;;;7.93;;
46897;SDS011;32646;50.958;6.258;2023-06-10T02:42:02;11.68;;;7.55;;
46897;SDS011;32646;50.958;6.258;2023-06-10T02:44:36;12.02;;;7.85;;
46897;SDS011;32646;50.958;6.258;2023-06-10T02:47:16;12.07;;;7.88;;
46897;SDS011;32646;50.958;6.258;2023-06-10T02:49:46;14.77;;;8.05;;
46897;SDS011;32646;50.958;6.258;2023-06-10T02:52:12;12.50;;;7.68;;
46897;SDS011;32646;50.958;6.258;2023-06-10T02:54:39;11.85;;;8.00;;
46897;SDS011;32646;50.958;6.258;2023-06-10T02:57:06;10.82;;;7.50;;
46897;SDS011;32646;50.958;6.258;2023-06-10T02:59:32;10.85;;;7.63;;
46897;SDS011;32646;50.958;6.258;2023-06-10T03:01:59;12.65;;;7.95;;
46897;SDS011;32646;50.958;6.258;2023-06-10T03:04:26;14.15;;;9.02;;
46897;SDS011;32646;50.958;6.258;2023-06-10T03:06:52;13.52;;;8.02;;
46897;SDS011;32646;50.958;6.258;2023-06-10T03:09:22;13.35;;;8.68;;
46897;SDS011;32646;50.958;6.258;2023-06-10T03:11:55;12.35;;;8.13;;
46897;SDS011;32646;50.958;6.258;2023-06-10T03:14:25;13.57;;;7.75;;
46897;SDS011;32646;50.958;6.258;2023-06-10T03:16:52;13.35;;;8.18;;
46897;SDS011;32646;50.958;6.258;2023-06-10T03:19:18;16.60;;;8.73;;
46897;SDS011;32646;50.958;6.258;2023-06-10T03:21:45;13.23;;;8.07;;
46897;SDS011;32646;50.958;6.258;2023-06-10T03:24:15;11.00;;;7.85;;
46897;SDS011;32646;50.958;6.258;2023-06-10T03:26:41;16.58;;;8.35;;
46897;SDS011;32646;50.958;6.258;2023-06-10T03:29:08;11.13;;;7.65;;
46897;SDS011;32646;50.958;6.258;2023-06-10T03:31:36;11.48;;;7.20;;
46897;SDS011;32646;50.958;6.258;2023-06-10T03:34:04;14.13;;;8.45;;
46897;SDS011;32646;50.958;6.258;2023-06-10T03:36:32;12.25;;;8.18;;
46897;SDS011;32646;50.958;6.258;2023-06-10T03:39:00;14.18;;;8.80;;
46897;SDS011;32646;50.958;6.258;2023-06-10T05:13:58;14.13;;;8.85;;
46897;SDS011;32646;50.958;6.258;2023-06-10T05:16:25;13.30;;;8.95;;
46897;SDS011;32646;50.958;6.258;2023-06-10T05:18:52;15.63;;;10.02;;
46897;SDS011;32646;50.958;6.258;2023-06-10T05:21:22;15.18;;;10.75;;
46897;SDS011;32646;50.958;6.258;2023-06-10T05:36:35;13.57;;;9.02;;
46897;SDS011;32646;50.958;6.258;2023-06-10T05:42:50;14.15;;;9.13;;
46897;SDS011;32646;50.958;6.258;2023-06-10T05:45:16;15.48;;;8.65;;
46897;SDS011;32646;50.958;6.258;2023-06-10T05:47:43;12.40;;;7.95;;
46897;SDS011;32646;50.958;6.258;2023-06-10T05:50:10;13.00;;;7.72;;
46897;SDS011;32646;50.958;6.258;2023-06-10T05:52:36;11.00;;;8.20;;
46897;SDS011;32646;50.958;6.258;2023-06-10T05:55:03;12.32;;;7.72;;
46897;SDS011;32646;50.958;6.258;2023-06-10T05:57:30;11.63;;;7.60;;
46897;SDS011;32646;50.958;6.258;2023-06-10T05:59:56;13.20;;;7.68;;
46897;SDS011;32646;50.958;6.258;2023-06-10T06:02:23;12.05;;;8.13;;
46897;SDS011;32646;50.958;6.258;2023-06-10T06:04:50;12.57;;;8.38;;
46897;SDS011;32646;50.958;6.258;2023-06-10T06:07:17;14.57;;;8.20;;
46897;SDS011;32646;50.958;6.258;2023-06-10T06:09:43;10.48;;;7.63;;
46897;SDS011;32646;50.958;6.258;2023-06-10T06:12:10;10.95;;;7.63;;
46897;SDS011;32646;50.958;6.258;2023-06-10T06:14:37;11.02;;;8.13;;
46897;SDS011;32646;50.958;6.258;2023-06-10T06:17:04;11.48;;;7.53;;
46897;SDS011;32646;50.958;6.258;2023-06-10T06:19:32;11.10;;;6.88;;
46897;SDS011;32646;50.958;6.258;2023-06-10T06:21:58;9.70;;;7.35;;
46897;SDS011;32646;50.958;6.258;2023-06-10T06:24:25;11.95;;;8.05;;
46897;SDS011;32646;50.958;6.258;2023-06-10T06:26:52;11.57;;;7.93;;
46897;SDS011;32646;50.958;6.258;2023-06-10T06:29:18;10.30;;;7.00;;
46897;SDS011;32646;50.958;6.258;2023-06-10T06:31:45;11.55;;;7.22;;
46897;SDS011;32646;50.958;6.258;2023-06-10T06:34:12;9.90;;;7.07;;
46897;SDS011;32646;50.958;6.258;2023-06-10T06:36:41;10.98;;;7.05;;
46897;SDS011;32646;50.958;6.258;2023-06-10T06:39:08;9.25;;;6.53;;
46897;SDS011;32646;50.958;6.258;2023-06-10T06:41:35;10.82;;;6.90;;
46897;SDS011;32646;50.958;6.258;2023-06-10T06:44:01;9.02;;;6.18;;
46897;SDS011;32646;50.958;6.258;2023-06-10T06:46:28;9.77;;;6.53;;
46897;SDS011;32646;50.958;6.258;2023-06-10T06:48:54;9.93;;;6.60;;
46897;SDS011;32646;50.958;6.258;2023-06-10T06:51:21;11.95;;;6.63;;
46897;SDS011;32646;50.958;6.258;2023-06-10T06:53:48;12.90;;;6.40;;
46897;SDS011;32646;50.958;6.258;2023-06-10T06:56:14;12.50;;;6.55;;
46897;SDS011;32646;50.958;6.258;2023-06-10T06:58:41;9.43;;;6.97;;
46897;SDS011;32646;50.958;6.258;2023-06-10T07:01:07;11.55;;;6.47;;
46897;SDS011;32646;50.958;6.258;2023-06-10T07:03:34;9.30;;;6.43;;
46897;SDS011;32646;50.958;6.258;2023-06-10T07:06:01;8.32;;;5.90;;
46897;SDS011;32646;50.958;6.258;2023-06-10T07:08:27;10.48;;;6.28;;
46897;SDS011;32646;50.958;6.258;2023-06-10T07:10:54;8.80;;;5.85;;
46897;SDS011;32646;50.958;6.258;2023-06-10T07:13:20;9.02;;;5.88;;
46897;SDS011;32646;50.958;6.258;2023-06-10T07:15:47;9.55;;;6.13;;
46897;SDS011;32646;50.958;6.258;2023-06-10T07:18:14;10.82;;;6.70;;
46897;SDS011;32646;50.958;6.258;2023-06-10T07:20:41;12.20;;;6.07;;
46897;SDS011;32646;50.958;6.258;2023-06-10T07:23:08;9.38;;;5.75;;
46897;SDS011;32646;50.958;6.258;2023-06-10T07:25:34;10.25;;;6.35;;
46897;SDS011;32646;50.958;6.258;2023-06-10T07:28:01;8.48;;;5.65;;
46897;SDS011;32646;50.958;6.258;2023-06-10T07:30:27;8.55;;;5.88;;
46897;SDS011;32646;50.958;6.258;2023-06-10T07:32:54;11.70;;;6.53;;
46897;SDS011;32646;50.958;6.258;2023-06-10T07:35:21;9.93;;;5.35;;
46897;SDS011;32646;50.958;6.258;2023-06-10T07:37:47;9.80;;;5.50;;
46897;SDS011;32646;50.958;6.258;2023-06-10T07:40:14;8.63;;;5.35;;
46897;SDS011;32646;50.958;6.258;2023-06-10T07:42:40;8.07;;;5.60;;
46897;SDS011;32646;50.958;6.258;2023-06-10T07:45:07;8.25;;;5.38;;
46897;SDS011;32646;50.958;6.258;2023-06-10T07:47:34;9.35;;;5.57;;
46897;SDS011;32646;50.958;6.258;2023-06-10T07:50:01;9.30;;;5.82;;
46897;SDS011;32646;50.958;6.258;2023-06-10T07:52:28;8.65;;;6.00;;
46897;SDS011;32646;50.958;6.258;2023-06-10T07:54:54;9.15;;;5.85;;
46897;SDS011;32646;50.958;6.258;2023-06-10T07:57:21;9.77;;;5.50;;
46897;SDS011;32646;50.958;6.258;2023-06-10T07:59:47;9.10;;;6.00;;
46897;SDS011;32646;50.958;6.258;2023-06-10T08:02:14;8.30;;;5.20;;
46897;SDS011;32646;50.958;6.258;2023-06-10T08:04:41;8.52;;;5.82;;
46897;SDS011;32646;50.958;6.258;2023-06-10T08:07:07;9.77;;;6.13;;
46897;SDS011;32646;50.958;6.258;2023-06-10T08:09:34;10.45;;;5.50;;
46897;SDS011;32646;50.958;6.258;2023-06-10T08:12:00;9.10;;;5.38;;
46897;SDS011;32646;50.958;6.258;2023-06-10T08:14:27;8.38;;;5.40;;
46897;SDS011;32646;50.958;6.258;2023-06-10T08:16:54;8.07;;;5.03;;
46897;SDS011;32646;50.958;6.258;2023-06-10T08:19:20;6.80;;;5.05;;
46897;SDS011;32646;50.958;6.258;2023-06-10T08:21:47;9.20;;;5.63;;
46897;SDS011;32646;50.958;6.258;2023-06-10T08:24:14;8.75;;;4.82;;
46897;SDS011;32646;50.958;6.258;2023-06-10T08:26:40;8.68;;;4.70;;
46897;SDS011;32646;50.958;6.258;2023-06-10T08:29:07;6.15;;;4.72;;
46897;SDS011;32646;50.958;6.258;2023-06-10T08:31:33;8.55;;;4.82;;
46897;SDS011;32646;50.958;6.258;2023-06-10T08:34:00;7.70;;;5.10;;
46897;SDS011;32646;50.958;6.258;2023-06-10T08:36:26;7.22;;;5.20;;
46897;SDS011;32646;50.958;6.258;2023-06-10T08:38:53;8.52;;;4.88;;
46897;SDS011;32646;50.958;6.258;2023-06-10T08:41:19;7.35;;;5.07;;
46897;SDS011;32646;50.958;6.258;2023-06-10T08:43:54;8.07;;;5.00;;
46897;SDS011;32646;50.958;6.258;2023-06-10T08:46:35;7.65;;;4.80;;
46897;SDS011;32646;50.958;6.258;2023-06-10T08:49:03;7.88;;;5.07;;
46897;SDS011;32646;50.958;6.258;2023-06-10T08:51:32;6.53;;;4.68;;
46897;SDS011;32646;50.958;6.258;2023-06-10T08:54:02;7.28;;;4.80;;
46897;SDS011;32646;50.958;6.258;2023-06-10T08:56:41;7.68;;;5.00;;
46897;SDS011;32646;50.958;6.258;2023-06-10T08:59:09;7.28;;;5.00;;
46897;SDS011;32646;50.958;6.258;2023-06-10T09:01:36;7.35;;;4.65;;
46897;SDS011;32646;50.958;6.258;2023-06-10T09:04:04;6.55;;;5.28;;
46897;SDS011;32646;50.958;6.258;2023-06-10T09:06:32;7.50;;;5.20;;
46897;SDS011;32646;50.958;6.258;2023-06-10T09:08:59;8.70;;;5.00;;
46897;SDS011;32646;50.958;6.258;2023-06-10T09:11:29;6.38;;;4.82;;
46897;SDS011;32646;50.958;6.258;2023-06-10T09:13:55;6.95;;;5.45;;
46897;SDS011;32646;50.958;6.258;2023-06-10T09:16:22;8.73;;;5.03;;
46897;SDS011;32646;50.958;6.258;2023-06-10T09:18:50;8.55;;;5.50;;
46897;SDS011;32646;50.958;6.258;2023-06-10T09:21:18;7.38;;;5.18;;
46897;SDS011;32646;50.958;6.258;2023-06-10T09:23:44;6.45;;;4.97;;
46897;SDS011;32646;50.958;6.258;2023-06-10T09:26:11;9.32;;;4.85;;
46897;SDS011;32646;50.958;6.258;2023-06-10T09:28:38;8.77;;;4.78;;
46897;SDS011;32646;50.958;6.258;2023-06-10T09:31:05;6.75;;;4.82;;
46897;SDS011;32646;50.958;6.258;2023-06-10T09:33:32;9.18;;;5.47;;
46897;SDS011;32646;50.958;6.258;2023-06-10T09:36:02;6.65;;;5.03;;
46897;SDS011;32646;50.958;6.258;2023-06-10T09:38:30;6.57;;;5.05;;
46897;SDS011;32646;50.958;6.258;2023-06-10T09:40:58;6.68;;;4.70;;
46897;SDS011;32646;50.958;6.258;2023-06-10T09:43:46;8.05;;;5.32;;
46897;SDS011;32646;50.958;6.258;2023-06-10T09:46:15;7.47;;;4.95;;
46897;SDS011;32646;50.958;6.258;2023-06-10T09:48:43;7.63;;;5.55;;
46897;SDS011;32646;50.958;6.258;2023-06-10T09:51:14;8.23;;;5.60;;
46897;SDS011;32646;50.958;6.258;2023-06-10T09:53:42;7.35;;;5.35;;
46897;SDS011;32646;50.958;6.258;2023-06-10T09:56:08;8.38;;;5.70;;
46897;SDS011;32646;50.958;6.258;2023-06-10T09:58:39;9.48;;;5.90;;
46897;SDS011;32646;50.958;6.258;2023-06-10T10:01:09;8.77;;;5.43;;
46897;SDS011;32646;50.958;6.258;2023-06-10T10:03:49;8.25;;;5.60;;
46897;SDS011;32646;50.958;6.258;2023-06-10T10:06:17;7.57;;;5.50;;
46897;SDS011;32646;50.958;6.258;2023-06-10T10:08:46;8.43;;;5.45;;
46897;SDS011;32646;50.958;6.258;2023-06-10T10:11:17;7.50;;;5.35;;
46897;SDS011;32646;50.958;6.258;2023-06-10T10:13:45;8.25;;;5.18;;
46897;SDS011;32646;50.958;6.258;2023-06-10T10:16:15;8.60;;;5.07;;
46897;SDS011;32646;50.958;6.258;2023-06-10T10:18:46;9.35;;;5.70;;
46897;SDS011;32646;50.958;6.258;2023-06-10T10:21:20;8.23;;;5.25;;
46897;SDS011;32646;50.958;6.258;2023-06-10T10:26:35;7.75;;;6.07;;
46897;SDS011;32646;50.958;6.258;2023-06-10T10:29:11;8.60;;;5.55;;
46897;SDS011;32646;50.958;6.258;2023-06-10T10:31:45;7.28;;;5.63;;
46897;SDS011;32646;50.958;6.258;2023-06-10T10:34:18;9.40;;;5.50;;
46897;SDS011;32646;50.958;6.258;2023-06-10T10:36:50;8.13;;;5.18;;
46897;SDS011;32646;50.958;6.258;2023-06-10T10:39:16;7.93;;;5.25;;
46897;SDS011;32646;50.958;6.258;2023-06-10T10:41:44;9.50;;;5.88;;
46897;SDS011;32646;50.958;6.258;2023-06-10T10:44:12;7.78;;;5.55;;
46897;SDS011;32646;50.958;6.258;2023-06-10T10:46:42;8.38;;;5.80;;
46897;SDS011;32646;50.958;6.258;2023-06-10T10:49:11;7.30;;;5.40;;
46897;SDS011;32646;50.958;6.258;2023-06-10T10:51:53;8.10;;;5.38;;
46897;SDS011;32646;50.958;6.258;2023-06-10T10:54:31;9.10;;;5.80;;
46897;SDS011;32646;50.958;6.258;2023-06-10T10:57:12;8.65;;;5.82;;
46897;SDS011;32646;50.958;6.258;2023-06-10T11:02:19;6.80;;;5.65;;
46897;SDS011;32646;50.958;6.258;2023-06-10T11:04:58;7.97;;;5.70;;
46897;SDS011;32646;50.958;6.258;2023-06-10T11:07:29;6.95;;;5.50;;
46897;SDS011;32646;50.958;6.258;2023-06-10T11:09:57;8.85;;;5.93;;
46897;SDS011;32646;50.958;6.258;2023-06-10T11:12:42;8.27;;;5.85;;
46897;SDS011;32646;50.958;6.258;2023-06-10T11:15:12;8.85;;;5.50;;
46897;SDS011;32646;50.958;6.258;2023-06-10T11:28:36;8.48;;;6.13;;
46897;SDS011;32646;50.958;6.258;2023-06-10T11:31:03;8.40;;;5.78;;
46897;SDS011;32646;50.958;6.258;2023-06-10T11:33:30;12.93;;;5.70;;
46897;SDS011;32646;50.958;6.258;2023-06-10T11:35:58;9.10;;;5.50;;
46897;SDS011;32646;50.958;6.258;2023-06-10T11:38:25;7.72;;;5.82;;
46897;SDS011;32646;50.958;6.258;2023-06-10T11:40:52;8.48;;;5.70;;
46897;SDS011;32646;50.958;6.258;2023-06-10T11:43:19;7.82;;;5.60;;
46897;SDS011;32646;50.958;6.258;2023-06-10T11:45:46;7.30;;;5.28;;
46897;SDS011;32646;50.958;6.258;2023-06-10T11:48:12;7.13;;;5.20;;
46897;SDS011;32646;50.958;6.258;2023-06-10T11:50:39;8.77;;;5.82;;
46897;SDS011;32646;50.958;6.258;2023-06-10T11:53:07;7.38;;;5.25;;
46897;SDS011;32646;50.958;6.258;2023-06-10T11:55:47;8.98;;;5.57;;
46897;SDS011;32646;50.958;6.258;2023-06-10T11:58:16;7.63;;;5.55;;
46897;SDS011;32646;50.958;6.258;2023-06-10T12:00:43;7.10;;;5.32;;
46897;SDS011;32646;50.958;6.258;2023-06-10T12:03:21;8.25;;;5.35;;
46897;SDS011;32646;50.958;6.258;2023-06-10T12:05:57;7.57;;;5.63;;
46897;SDS011;32646;50.958;6.258;2023-06-10T12:08:26;8.43;;;5.70;;
46897;SDS011;32646;50.958;6.258;2023-06-10T12:10:53;8.93;;;5.82;;
46897;SDS011;32646;50.958;6.258;2023-06-10T12:13:21;6.72;;;5.03;;
46897;SDS011;32646;50.958;6.258;2023-06-10T12:15:47;7.07;;;5.35;;
46897;SDS011;32646;50.958;6.258;2023-06-10T12:18:21;8.02;;;5.43;;
46897;SDS011;32646;50.958;6.258;2023-06-10T12:20:49;8.65;;;5.72;;
46897;SDS011;32646;50.958;6.258;2023-06-10T12:23:17;6.85;;;5.13;;
46897;SDS011;32646;50.958;6.258;2023-06-10T12:25:50;8.30;;;5.60;;
46897;SDS011;32646;50.958;6.258;2023-06-10T12:28:21;8.02;;;5.68;;
46897;SDS011;32646;50.958;6.258;2023-06-10T12:30:49;7.35;;;5.85;;
46897;SDS011;32646;50.958;6.258;2023-06-10T12:33:16;7.63;;;5.18;;
46897;SDS011;32646;50.958;6.258;2023-06-10T12:35:47;8.32;;;5.85;;
46897;SDS011;32646;50.958;6.258;2023-06-10T12:40:47;7.55;;;5.80;;
46897;SDS011;32646;50.958;6.258;2023-06-10T12:43:18;8.52;;;5.85;;
46897;SDS011;32646;50.958;6.258;2023-06-10T12:48:22;7.22;;;5.68;;
46897;SDS011;32646;50.958;6.258;2023-06-10T12:50:53;7.80;;;5.55;;
46897;SDS011;32646;50.958;6.258;2023-06-10T12:53:23;9.50;;;6.63;;
46897;SDS011;32646;50.958;6.258;2023-06-10T12:55:51;7.65;;;5.95;;
46897;SDS011;32646;50.958;6.258;2023-06-10T12:58:20;8.90;;;6.68;;
46897;SDS011;32646;50.958;6.258;2023-06-10T13:00:48;7.75;;;6.35;;
46897;SDS011;32646;50.958;6.258;2023-06-10T13:03:14;10.10;;;5.93;;
46897;SDS011;32646;50.958;6.258;2023-06-10T13:05:41;7.97;;;6.28;;
46897;SDS011;32646;50.958;6.258;2023-06-10T13:08:08;8.85;;;6.40;;
46897;SDS011;32646;50.958;6.258;2023-06-10T13:10:35;8.75;;;6.30;;
46897;SDS011;32646;50.958;6.258;2023-06-10T13:13:02;7.32;;;6.03;;
46897;SDS011;32646;50.958;6.258;2023-06-10T13:15:29;8.50;;;5.85;;
46897;SDS011;32646;50.958;6.258;2023-06-10T13:17:56;7.82;;;5.90;;
46897;SDS011;32646;50.958;6.258;2023-06-10T13:20:22;8.52;;;6.28;;
46897;SDS011;32646;50.958;6.258;2023-06-10T13:22:49;8.10;;;5.65;;
46897;SDS011;32646;50.958;6.258;2023-06-10T13:25:16;7.78;;;6.05;;
46897;SDS011;32646;50.958;6.258;2023-06-10T13:27:43;9.07;;;6.93;;
46897;SDS011;32646;50.958;6.258;2023-06-10T13:30:12;10.02;;;8.02;;
46897;SDS011;32646;50.958;6.258;2023-06-10T13:32:39;8.07;;;6.43;;
46897;SDS011;32646;50.958;6.258;2023-06-10T13:35:06;9.25;;;6.38;;
46897;SDS011;32646;50.958;6.258;2023-06-10T13:37:33;11.30;;;8.05;;
46897;SDS011;32646;50.958;6.258;2023-06-10T13:40:00;8.38;;;6.97;;
46897;SDS011;32646;50.958;6.258;2023-06-10T13:42:27;7.75;;;6.93;;
46897;SDS011;32646;50.958;6.258;2023-06-10T13:44:54;7.20;;;5.88;;
46897;SDS011;32646;50.958;6.258;2023-06-10T13:47:21;9.75;;;6.25;;
46897;SDS011;32646;50.958;6.258;2023-06-10T13:49:47;12.15;;;8.20;;
46897;SDS011;32646;50.958;6.258;2023-06-10T13:52:14;8.20;;;6.20;;
46897;SDS011;32646;50.958;6.258;2023-06-10T13:54:40;13.52;;;10.32;;
46897;SDS011;32646;50.958;6.258;2023-06-10T13:57:07;8.85;;;6.20;;
46897;SDS011;32646;50.958;6.258;2023-06-10T13:59:34;9.57;;;6.60;;
46897;SDS011;32646;50.958;6.258;2023-06-10T14:02:00;8.40;;;5.82;;
46897;SDS011;32646;50.958;6.258;2023-06-10T14:04:27;9.32;;;5.93;;
46897;SDS011;32646;50.958;6.258;2023-06-10T14:06:54;9.20;;;5.70;;
46897;SDS011;32646;50.958;6.258;2023-06-10T14:09:20;8.90;;;5.50;;
46897;SDS011;32646;50.958;6.258;2023-06-10T14:11:47;7.80;;;5.38;;
46897;SDS011;32646;50.958;6.258;2023-06-10T14:14:14;7.88;;;6.03;;
46897;SDS011;32646;50.958;6.258;2023-06-10T14:16:40;7.32;;;5.47;;
46897;SDS011;32646;50.958;6.258;2023-06-10T14:19:08;9.10;;;5.97;;
46897;SDS011;32646;50.958;6.258;2023-06-10T14:21:35;9.02;;;5.25;;
46897;SDS011;32646;50.958;6.258;2023-06-10T14:24:02;7.50;;;5.68;;
46897;SDS011;32646;50.958;6.258;2023-06-10T14:26:29;7.25;;;5.75;;
46897;SDS011;32646;50.958;6.258;2023-06-10T14:28:55;7.88;;;5.60;;
46897;SDS011;32646;50.958;6.258;2023-06-10T14:31:22;9.13;;;5.32;;
46897;SDS011;32646;50.958;6.258;2023-06-10T14:33:48;7.72;;;5.88;;
46897;SDS011;32646;50.958;6.258;2023-06-10T14:36:15;7.97;;;5.22;;
46897;SDS011;32646;50.958;6.258;2023-06-10T14:38:42;8.13;;;5.35;;
46897;SDS011;32646;50.958;6.258;2023-06-10T14:41:08;8.27;;;5.53;;
46897;SDS011;32646;50.958;6.258;2023-06-10T14:43:35;10.05;;;5.53;;
46897;SDS011;32646;50.958;6.258;2023-06-10T14:46:01;7.20;;;5.18;;
46897;SDS011;32646;50.958;6.258;2023-06-10T14:48:28;7.32;;;5.10;;
46897;SDS011;32646;50.958;6.258;2023-06-10T14:50:54;8.15;;;5.07;;
46897;SDS011;32646;50.958;6.258;2023-06-10T14:53:21;7.55;;;5.32;;
46897;SDS011;32646;50.958;6.258;2023-06-10T14:55:48;7.57;;;5.20;;
46897;SDS011;32646;50.958;6.258;2023-06-10T14:58:14;7.90;;;5.55;;
46897;SDS011;32646;50.958;6.258;2023-06-10T15:00:41;8.93;;;6.95;;
46897;SDS011;32646;50.958;6.258;2023-06-10T15:03:08;8.13;;;5.82;;
46897;SDS011;32646;50.958;6.258;2023-06-10T15:05:34;6.95;;;5.10;;
46897;SDS011;32646;50.958;6.258;2023-06-10T15:08:01;7.78;;;5.28;;
46897;SDS011;32646;50.958;6.258;2023-06-10T15:10:27;6.72;;;4.97;;
46897;SDS011;32646;50.958;6.258;2023-06-10T15:12:54;7.57;;;4.90;;
46897;SDS011;32646;50.958;6.258;2023-06-10T15:15:24;7.53;;;5.72;;
46897;SDS011;32646;50.958;6.258;2023-06-10T15:17:51;8.52;;;5.15;;
46897;SDS011;32646;50.958;6.258;2023-06-10T15:20:19;8.73;;;5.93;;
46897;SDS011;32646;50.958;6.258;2023-06-10T15:22:45;7.68;;;5.15;;
46897;SDS011;32646;50.958;6.258;2023-06-10T15:25:12;6.68;;;5.25;;
46897;SDS011;32646;50.958;6.258;2023-06-10T15:27:42;8.18;;;5.38;;
46897;SDS011;32646;50.958;6.258;2023-06-10T15:30:08;7.07;;;4.95;;
46897;SDS011;32646;50.958;6.258;2023-06-10T15:32:35;9.60;;;6.10;;
46897;SDS011;32646;50.958;6.258;2023-06-10T15:35:02;7.97;;;5.78;;
46897;SDS011;32646;50.958;6.258;2023-06-10T15:37:29;9.75;;;5.28;;
46897;SDS011;32646;50.958;6.258;2023-06-10T15:39:55;6.97;;;5.38;;
46897;SDS011;32646;50.958;6.258;2023-06-10T15:42:22;6.20;;;4.75;;
46897;SDS011;32646;50.958;6.258;2023-06-10T15:44:49;8.73;;;5.43;;
46897;SDS011;32646;50.958;6.258;2023-06-10T15:47:15;7.20;;;5.30;;
46897;SDS011;32646;50.958;6.258;2023-06-10T15:49:42;10.10;;;5.70;;
46897;SDS011;32646;50.958;6.258;2023-06-10T15:52:08;8.23;;;5.10;;
46897;SDS011;32646;50.958;6.258;2023-06-10T15:54:35;9.07;;;5.20;;
46897;SDS011;32646;50.958;6.258;2023-06-10T15:57:02;8.88;;;5.68;;
46897;SDS011;32646;50.958;6.258;2023-06-10T15:59:31;9.20;;;5.40;;
46897;SDS011;32646;50.958;6.258;2023-06-10T16:01:58;7.88;;;5.82;;
46897;SDS011;32646;50.958;6.258;2023-06-10T16:04:24;7.70;;;5.45;;
46897;SDS011;32646;50.958;6.258;2023-06-10T16:06:51;11.70;;;6.78;;
46897;SDS011;32646;50.958;6.258;2023-06-10T16:09:18;10.10;;;5.78;;
46897;SDS011;32646;50.958;6.258;2023-06-10T16:11:44;9.88;;;5.78;;
46897;SDS011;32646;50.958;6.258;2023-06-10T16:14:11;7.75;;;5.20;;
46897;SDS011;32646;50.958;6.258;2023-06-10T16:16:37;8.93;;;5.13;;
46897;SDS011;32646;50.958;6.258;2023-06-10T16:19:04;7.78;;;5.03;;
46897;SDS011;32646;50.958;6.258;2023-06-10T16:21:31;7.70;;;5.15;;
46897;SDS011;32646;50.958;6.258;2023-06-10T16:23:57;8.35;;;5.20;;
46897;SDS011;32646;50.958;6.258;2023-06-10T16:26:24;9.13;;;5.57;;
46897;SDS011;32646;50.958;6.258;2023-06-10T16:28:50;7.07;;;4.65;;
46897;SDS011;32646;50.958;6.258;2023-06-10T16:31:17;9.13;;;5.18;;
46897;SDS011;32646;50.958;6.258;2023-06-10T16:33:44;8.98;;;5.53;;
46897;SDS011;32646;50.958;6.258;2023-06-10T16:36:10;6.93;;;4.90;;
46897;SDS011;32646;50.958;6.258;2023-06-10T16:38:37;8.25;;;4.85;;
46897;SDS011;32646;50.958;6.258;2023-06-10T16:41:03;8.88;;;4.47;;
46897;SDS011;32646;50.958;6.258;2023-06-10T16:43:30;6.97;;;4.60;;
46897;SDS011;32646;50.958;6.258;2023-06-10T16:45:56;8.20;;;4.70;;
46897;SDS011;32646;50.958;6.258;2023-06-10T16:48:23;9.52;;;5.50;;
46897;SDS011;32646;50.958;6.258;2023-06-10T16:50:50;7.88;;;4.25;;
46897;SDS011;32646;50.958;6.258;2023-06-10T16:53:16;8.82;;;5.20;;
46897;SDS011;32646;50.958;6.258;2023-06-10T16:55:43;8.00;;;4.75;;
46897;SDS011;32646;50.958;6.258;2023-06-10T16:58:09;6.65;;;4.78;;
46897;SDS011;32646;50.958;6.258;2023-06-10T17:00:36;9.95;;;5.18;;
46897;SDS011;32646;50.958;6.258;2023-06-10T17:03:03;6.80;;;4.60;;
46897;SDS011;32646;50.958;6.258;2023-06-10T17:05:30;7.75;;;4.53;;
46897;SDS011;32646;50.958;6.258;2023-06-10T17:07:57;9.00;;;5.13;;
46897;SDS011;32646;50.958;6.258;2023-06-10T17:10:23;7.00;;;4.78;;
46897;SDS011;32646;50.958;6.258;2023-06-10T17:12:50;7.80;;;5.20;;
46897;SDS011;32646;50.958;6.258;2023-06-10T17:15:16;9.15;;;5.20;;
46897;SDS011;32646;50.958;6.258;2023-06-10T17:17:43;7.43;;;4.68;;
46897;SDS011;32646;50.958;6.258;2023-06-10T17:20:09;6.80;;;3.88;;
46897;SDS011;32646;50.958;6.258;2023-06-10T17:22:36;7.47;;;4.47;;
46897;SDS011;32646;50.958;6.258;2023-06-10T17:25:03;7.75;;;4.20;;
46897;SDS011;32646;50.958;6.258;2023-06-10T17:27:30;5.53;;;4.03;;
46897;SDS011;32646;50.958;6.258;2023-06-10T17:29:57;6.72;;;4.13;;
46897;SDS011;32646;50.958;6.258;2023-06-10T17:32:23;7.65;;;4.25;;
46897;SDS011;32646;50.958;6.258;2023-06-10T17:34:50;8.13;;;4.55;;
46897;SDS011;32646;50.958;6.258;2023-06-10T17:37:16;6.93;;;4.70;;
46897;SDS011;32646;50.958;6.258;2023-06-10T17:39:43;9.15;;;4.53;;
46897;SDS011;32646;50.958;6.258;2023-06-10T17:42:09;7.72;;;4.75;;
46897;SDS011;32646;50.958;6.258;2023-06-10T17:44:36;8.48;;;4.78;;
46897;SDS011;32646;50.958;6.258;2023-06-10T17:47:03;9.00;;;4.65;;
46897;SDS011;32646;50.958;6.258;2023-06-10T17:49:30;9.10;;;5.20;;
46897;SDS011;32646;50.958;6.258;2023-06-10T17:51:58;9.57;;;5.15;;
46897;SDS011;32646;50.958;6.258;2023-06-10T17:54:25;7.53;;;4.60;;
46897;SDS011;32646;50.958;6.258;2023-06-10T17:56:51;8.48;;;4.65;;
46897;SDS011;32646;50.958;6.258;2023-06-10T17:59:18;7.07;;;4.72;;
46897;SDS011;32646;50.958;6.258;2023-06-10T18:01:44;7.47;;;4.75;;
46897;SDS011;32646;50.958;6.258;2023-06-10T18:04:11;8.05;;;5.10;;
46897;SDS011;32646;50.958;6.258;2023-06-10T18:06:38;8.68;;;4.68;;
46897;SDS011;32646;50.958;6.258;2023-06-10T18:09:05;7.40;;;4.72;;
46897;SDS011;32646;50.958;6.258;2023-06-10T18:11:32;6.40;;;4.57;;
46897;SDS011;32646;50.958;6.258;2023-06-10T18:14:02;7.20;;;4.70;;
46897;SDS011;32646;50.958;6.258;2023-06-10T18:16:29;7.78;;;5.05;;
46897;SDS011;32646;50.958;6.258;2023-06-10T18:18:55;7.72;;;4.97;;
46897;SDS011;32646;50.958;6.258;2023-06-10T18:21:22;9.07;;;5.15;;
46897;SDS011;32646;50.958;6.258;2023-06-10T18:23:49;7.25;;;4.85;;
46897;SDS011;32646;50.958;6.258;2023-06-10T18:26:15;7.22;;;4.93;;
46897;SDS011;32646;50.958;6.258;2023-06-10T18:28:42;7.80;;;4.80;;
46897;SDS011;32646;50.958;6.258;2023-06-10T18:31:09;8.07;;;4.88;;
46897;SDS011;32646;50.958;6.258;2023-06-10T18:33:36;8.55;;;4.95;;
46897;SDS011;32646;50.958;6.258;2023-06-10T18:36:02;6.22;;;4.28;;
46897;SDS011;32646;50.958;6.258;2023-06-10T18:38:29;7.20;;;4.65;;